Time,TemperatureF,DewpointF,PressureIn,WindDirection,WindDirectionDegrees,WindSpeedMPH,WindSpeedGustMPH,Humidity,HourlyPrecipIn,Conditions,Clouds,dailyrainin,SoftwareType,DateUTC
2013-08-08 00:00:00,66.8,51.1,29.76,NNW,348,7.0,7.0,57,0.00,,,0.00,Wunderground v.1.15,2013-08-08 06:00:00,
2013-08-08 00:05:00,66.7,51.0,29.75,NNW,341,6.0,7.0,57,0.00,,,0.00,Wunderground v.1.15,2013-08-08 06:05:00,
2013-08-08 00:14:00,66.4,51.2,29.76,North,360,3.0,4.0,58,0.00,,,0.00,Wunderground v.1.15,2013-08-08 06:14:00,
2013-08-08 00:19:00,66.3,51.1,29.76,North,355,3.0,3.0,58,0.00,,,0.00,Wunderground v.1.15,2013-08-08 06:19:00,
2013-08-08 00:24:00,66.3,51.1,29.76,North,5,2.0,3.0,58,0.00,,,0.00,Wunderground v.1.15,2013-08-08 06:24:00,
2013-08-08 00:34:00,66.1,51.4,29.76,North,360,0.0,1.0,59,0.00,,,0.00,Wunderground v.1.15,2013-08-08 06:34:00,
2013-08-08 00:39:00,66.0,51.3,29.76,North,360,0.0,2.0,59,0.00,,,0.00,Wunderground v.1.15,2013-08-08 06:39:00,
2013-08-08 00:44:00,65.8,51.5,29.76,NNE,30,1.0,2.0,60,0.00,,,0.00,Wunderground v.1.15,2013-08-08 06:44:00,
2013-08-08 00:49:00,65.7,51.4,29.76,NNE,28,0.0,0.0,60,0.00,,,0.00,Wunderground v.1.15,2013-08-08 06:49:00,
2013-08-08 00:54:00,65.5,51.2,29.75,NNE,29,0.0,0.0,60,0.00,,,0.00,Wunderground v.1.15,2013-08-08 06:54:00,
2013-08-08 01:00:00,65.4,51.1,29.76,NNE,29,0.0,0.0,60,0.00,,,0.00,Wunderground v.1.15,2013-08-08 07:00:00,
2013-08-08 01:05:00,65.3,51.1,29.74,NNE,30,0.0,0.0,60,0.00,,,0.00,Wunderground v.1.15,2013-08-08 07:05:00,
2013-08-08 01:15:00,65.3,51.1,29.74,NNE,29,0.0,0.0,60,0.00,,,0.00,Wunderground v.1.15,2013-08-08 07:15:00,
2013-08-08 01:20:00,65.3,51.1,29.74,NNE,29,0.0,0.0,60,0.00,,,0.00,Wunderground v.1.15,2013-08-08 07:20:00,
2013-08-08 01:25:00,65.2,51.4,29.74,NNE,29,0.0,0.0,61,0.00,,,0.00,Wunderground v.1.15,2013-08-08 07:25:00,
2013-08-08 01:34:00,64.7,51.4,29.74,NNE,29,0.0,0.0,62,0.00,,,0.00,Wunderground v.1.15,2013-08-08 07:34:00,
2013-08-08 01:39:00,64.4,51.5,29.74,NNE,29,0.0,0.0,63,0.00,,,0.00,Wunderground v.1.15,2013-08-08 07:39:00,
2013-08-08 01:44:00,64.4,51.1,29.74,NNE,30,0.0,0.0,62,0.00,,,0.00,Wunderground v.1.15,2013-08-08 07:44:00,
2013-08-08 01:49:00,64.4,51.5,29.74,NNE,29,0.0,0.0,63,0.00,,,0.00,Wunderground v.1.15,2013-08-08 07:49:00,
2013-08-08 01:54:00,64.5,51.2,29.73,NNE,29,0.0,0.0,62,0.00,,,0.00,Wunderground v.1.15,2013-08-08 07:54:00,
2013-08-08 01:59:00,64.6,51.3,29.73,NNE,29,0.0,0.0,62,0.00,,,0.00,Wunderground v.1.15,2013-08-08 07:59:00,
2013-08-08 02:05:00,64.6,50.8,29.72,NNE,29,0.0,0.0,61,0.00,,,0.00,Wunderground v.1.15,2013-08-08 08:05:00,
2013-08-08 02:14:00,64.5,51.2,29.72,NNE,30,0.0,0.0,62,0.00,,,0.00,Wunderground v.1.15,2013-08-08 08:14:00,
2013-08-08 02:19:00,64.4,51.5,29.73,NNE,30,0.0,0.0,63,0.00,,,0.00,Wunderground v.1.15,2013-08-08 08:19:00,
2013-08-08 02:24:00,64.3,51.4,29.73,NNE,29,0.0,0.0,63,0.00,,,0.00,Wunderground v.1.15,2013-08-08 08:24:00,
2013-08-08 02:29:00,64.4,51.5,29.73,NNE,29,0.0,0.0,63,0.00,,,0.00,Wunderground v.1.15,2013-08-08 08:29:00,
2013-08-08 02:35:00,64.4,51.5,29.73,NNE,29,0.0,0.0,63,0.00,,,0.00,Wunderground v.1.15,2013-08-08 08:35:00,
2013-08-08 02:40:00,64.4,51.5,29.73,NNE,30,0.0,0.0,63,0.00,,,0.00,Wunderground v.1.15,2013-08-08 08:40:00,
2013-08-08 02:50:00,64.7,51.4,29.72,ENE,77,0.0,0.0,62,0.00,,,0.00,Wunderground v.1.15,2013-08-08 08:50:00,
2013-08-08 02:55:00,64.8,51.5,29.72,ENE,77,0.0,0.0,62,0.00,,,0.00,Wunderground v.1.15,2013-08-08 08:55:00,
2013-08-08 02:59:00,64.5,51.2,29.72,ENE,77,0.0,0.0,62,0.00,,,0.00,Wunderground v.1.15,2013-08-08 08:59:00,
2013-08-08 03:05:00,64.4,51.1,29.71,ENE,77,0.0,0.0,62,0.00,,,0.00,Wunderground v.1.15,2013-08-08 09:05:00,
2013-08-08 03:14:00,64.6,50.8,29.70,ENE,76,0.0,0.0,61,0.00,,,0.00,Wunderground v.1.15,2013-08-08 09:14:00,
2013-08-08 03:19:00,64.7,50.9,29.70,ENE,77,0.0,0.0,61,0.00,,,0.00,Wunderground v.1.15,2013-08-08 09:19:00,
2013-08-08 03:24:00,65.0,51.2,29.70,ENE,77,0.0,0.0,61,0.00,,,0.00,Wunderground v.1.15,2013-08-08 09:24:00,
2013-08-08 03:29:00,65.0,51.2,29.71,ENE,61,0.0,4.0,61,0.00,,,0.00,Wunderground v.1.15,2013-08-08 09:29:00,
2013-08-08 03:34:00,65.2,51.4,29.71,ENE,61,2.0,4.0,61,0.00,,,0.00,Wunderground v.1.15,2013-08-08 09:34:00,
2013-08-08 03:45:00,65.1,51.3,29.70,ENE,61,0.0,2.0,61,0.00,,,0.00,Wunderground v.1.15,2013-08-08 09:45:00,
2013-08-08 03:50:00,65.1,51.8,29.70,ENE,61,0.0,0.0,62,0.00,,,0.00,Wunderground v.1.15,2013-08-08 09:50:00,
2013-08-08 03:55:00,64.9,52.4,29.71,North,355,0.0,0.0,64,0.00,,,0.00,Wunderground v.1.15,2013-08-08 09:55:00,
2013-08-08 04:00:00,64.4,52.4,29.71,North,355,0.0,0.0,65,0.00,,,0.00,Wunderground v.1.15,2013-08-08 10:00:00,
2013-08-08 04:05:00,63.9,52.3,29.73,North,355,0.0,0.0,66,0.00,,,0.00,Wunderground v.1.15,2013-08-08 10:05:00,
2013-08-08 04:15:00,62.9,52.6,29.73,North,355,0.0,3.0,69,0.00,,,0.00,Wunderground v.1.15,2013-08-08 10:15:00,
2013-08-08 04:20:00,62.7,52.4,29.73,NW,316,1.0,4.0,69,0.00,,,0.00,Wunderground v.1.15,2013-08-08 10:20:00,
2013-08-08 04:24:00,62.6,52.3,29.73,West,277,3.0,4.0,69,0.00,,,0.00,Wunderground v.1.15,2013-08-08 10:24:00,
2013-08-08 04:34:00,62.9,51.8,29.73,NE,53,2.0,3.0,67,0.00,,,0.00,Wunderground v.1.15,2013-08-08 10:34:00,
2013-08-08 04:44:00,63.5,51.9,29.73,NE,42,1.0,2.0,66,0.00,,,0.00,Wunderground v.1.15,2013-08-08 10:44:00,
2013-08-08 04:49:00,63.6,51.6,29.73,ENE,57,1.0,3.0,65,0.00,,,0.00,Wunderground v.1.15,2013-08-08 10:49:00,
2013-08-08 04:54:00,63.6,51.6,29.73,ENE,65,2.0,3.0,65,0.00,,,0.00,Wunderground v.1.15,2013-08-08 10:54:00,
2013-08-08 04:59:00,63.6,52.0,29.74,ENE,65,1.0,1.0,66,0.00,,,0.00,Wunderground v.1.15,2013-08-08 10:59:00,
2013-08-08 05:05:00,63.4,51.4,29.74,NE,53,0.0,3.0,65,0.00,,,0.00,Wunderground v.1.15,2013-08-08 11:05:00,
2013-08-08 05:15:00,63.3,51.7,29.74,NE,51,1.0,2.0,66,0.00,,,0.00,Wunderground v.1.15,2013-08-08 11:15:00,
2013-08-08 05:20:00,63.0,51.5,29.74,NE,51,0.0,4.0,66,0.00,,,0.00,Wunderground v.1.15,2013-08-08 11:20:00,
2013-08-08 05:25:00,62.3,51.6,29.75,NE,51,1.0,4.0,68,0.00,,,0.00,Wunderground v.1.15,2013-08-08 11:25:00,
2013-08-08 05:30:00,62.0,51.3,29.75,NE,51,0.0,0.0,68,0.00,,,0.00,Wunderground v.1.15,2013-08-08 11:30:00,
2013-08-08 05:35:00,61.8,51.9,29.75,NE,51,0.0,0.0,70,0.00,,,0.00,Wunderground v.1.15,2013-08-08 11:35:00,
2013-08-08 05:40:00,61.5,51.6,29.75,West,277,0.0,0.0,70,0.00,,,0.00,Wunderground v.1.15,2013-08-08 11:40:00,
2013-08-08 05:49:00,61.7,51.4,29.76,West,267,2.0,2.0,69,0.00,,,0.00,Wunderground v.1.15,2013-08-08 11:49:00,
2013-08-08 05:54:00,61.9,51.6,29.75,West,267,1.0,2.0,69,0.00,,,0.00,Wunderground v.1.15,2013-08-08 11:54:00,
2013-08-08 05:59:00,62.0,51.3,29.76,WSW,244,0.0,0.0,68,0.00,,,0.00,Wunderground v.1.15,2013-08-08 11:59:00,
2013-08-08 06:05:00,62.2,51.5,29.77,SSW,198,0.0,0.0,68,0.00,,,0.00,Wunderground v.1.15,2013-08-08 12:05:00,
2013-08-08 06:14:00,62.3,51.6,29.78,SSE,158,1.0,3.0,68,0.00,,,0.00,Wunderground v.1.15,2013-08-08 12:14:00,
2013-08-08 06:24:00,62.6,51.9,29.78,SSE,158,0.0,1.0,68,0.00,,,0.00,Wunderground v.1.15,2013-08-08 12:24:00,
2013-08-08 06:29:00,62.6,51.9,29.78,SSE,157,0.0,0.0,68,0.00,,,0.00,Wunderground v.1.15,2013-08-08 12:29:00,
2013-08-08 06:34:00,62.5,51.4,29.78,SSE,157,0.0,0.0,67,0.00,,,0.00,Wunderground v.1.15,2013-08-08 12:34:00,
2013-08-08 06:40:00,62.6,51.9,29.78,SSE,158,0.0,0.0,68,0.00,,,0.00,Wunderground v.1.15,2013-08-08 12:40:00,
2013-08-08 06:49:00,62.8,52.1,29.78,SSE,158,0.0,0.0,68,0.00,,,0.00,Wunderground v.1.15,2013-08-08 12:49:00,
2013-08-08 06:54:00,62.9,52.2,29.78,WSW,258,0.0,0.0,68,0.00,,,0.00,Wunderground v.1.15,2013-08-08 12:54:00,
2013-08-08 06:59:00,63.0,52.3,29.78,WSW,251,0.0,0.0,68,0.00,,,0.00,Wunderground v.1.15,2013-08-08 12:59:00,
2013-08-08 07:05:00,63.1,52.4,29.80,WSW,238,0.0,0.0,68,0.00,,,0.00,Wunderground v.1.15,2013-08-08 13:05:00,
2013-08-08 07:14:00,63.2,52.1,29.80,South,188,0.0,0.0,67,0.00,,,0.00,Wunderground v.1.15,2013-08-08 13:14:00,
2013-08-08 07:24:00,63.7,52.9,29.78,South,188,0.0,0.0,68,0.00,,,0.00,Wunderground v.1.15,2013-08-08 13:24:00,
2013-08-08 07:29:00,63.9,52.7,29.79,South,188,0.0,0.0,67,0.00,,,0.00,Wunderground v.1.15,2013-08-08 13:29:00,
2013-08-08 07:34:00,64.2,53.0,29.79,South,188,0.0,0.0,67,0.00,,,0.00,Wunderground v.1.15,2013-08-08 13:34:00,
2013-08-08 07:39:00,64.5,54.1,29.79,South,187,0.0,0.0,69,0.00,,,0.00,Wunderground v.1.15,2013-08-08 13:39:00,
2013-08-08 07:44:00,64.7,54.3,29.79,ESE,117,0.0,1.0,69,0.00,,,0.00,Wunderground v.1.15,2013-08-08 13:44:00,
2013-08-08 07:50:00,64.8,53.6,29.79,ESE,104,0.0,0.0,67,0.00,,,0.00,Wunderground v.1.15,2013-08-08 13:50:00,
2013-08-08 07:55:00,65.0,52.9,29.79,ESE,103,0.0,0.0,65,0.00,,,0.00,Wunderground v.1.15,2013-08-08 13:55:00,
2013-08-08 08:00:00,65.3,53.6,29.79,ESE,104,0.0,0.0,66,0.00,,,0.00,Wunderground v.1.15,2013-08-08 14:00:00,
2013-08-08 08:05:00,65.5,53.4,29.80,ESE,104,0.0,0.0,65,0.00,,,0.00,Wunderground v.1.15,2013-08-08 14:05:00,
2013-08-08 08:15:00,66.1,54.0,29.80,ESE,103,0.0,0.0,65,0.00,,,0.00,Wunderground v.1.15,2013-08-08 14:15:00,
2013-08-08 08:24:00,66.3,55.0,29.80,NE,46,1.0,3.0,67,0.00,,,0.00,Wunderground v.1.15,2013-08-08 14:24:00,
2013-08-08 08:29:00,66.2,54.9,29.80,NE,46,2.0,3.0,67,0.00,,,0.00,Wunderground v.1.15,2013-08-08 14:29:00,
2013-08-08 08:34:00,66.1,54.8,29.81,NE,46,2.0,3.0,67,0.00,,,0.00,Wunderground v.1.15,2013-08-08 14:34:00,
2013-08-08 08:39:00,66.2,54.9,29.81,NE,46,1.0,1.0,67,0.00,,,0.00,Wunderground v.1.15,2013-08-08 14:39:00,
2013-08-08 08:44:00,66.4,54.3,29.80,NE,48,0.0,1.0,65,0.00,,,0.00,Wunderground v.1.15,2013-08-08 14:44:00,
2013-08-08 08:49:00,66.8,55.1,29.81,NE,48,0.0,0.0,66,0.00,,,0.00,Wunderground v.1.15,2013-08-08 14:49:00,
2013-08-08 08:59:00,67.4,54.8,29.81,NE,48,0.0,0.0,64,0.00,,,0.00,Wunderground v.1.15,2013-08-08 14:59:00,
2013-08-08 09:04:00,67.6,54.6,29.81,NE,48,0.0,0.0,63,0.00,,,0.00,Wunderground v.1.15,2013-08-08 15:04:00,
2013-08-08 09:10:00,68.0,56.2,29.81,NE,49,0.0,2.0,66,0.00,,,0.00,Wunderground v.1.15,2013-08-08 15:10:00,
2013-08-08 09:20:00,68.3,54.3,29.81,NE,50,1.0,1.0,61,0.00,,,0.00,Wunderground v.1.15,2013-08-08 15:20:00,
2013-08-08 09:29:00,68.9,55.3,29.80,South,169,0.0,0.0,62,0.00,,,0.00,Wunderground v.1.15,2013-08-08 15:29:00,
2013-08-08 09:34:00,69.2,56.1,29.80,South,169,0.0,0.0,63,0.00,,,0.00,Wunderground v.1.15,2013-08-08 15:34:00,
2013-08-08 09:39:00,69.4,56.3,29.80,South,170,0.0,0.0,63,0.00,,,0.00,Wunderground v.1.15,2013-08-08 15:39:00,
2013-08-08 09:44:00,69.2,55.6,29.80,South,170,0.0,0.0,62,0.00,,,0.00,Wunderground v.1.15,2013-08-08 15:44:00,
2013-08-08 09:49:00,69.2,55.6,29.80,South,170,0.0,1.0,62,0.00,,,0.00,Wunderground v.1.15,2013-08-08 15:49:00,
2013-08-08 09:59:00,69.3,55.3,29.80,South,170,0.0,0.0,61,0.00,,,0.00,Wunderground v.1.15,2013-08-08 15:59:00,
2013-08-08 10:05:00,69.6,55.6,29.80,South,169,0.0,0.0,61,0.00,,,0.00,Wunderground v.1.15,2013-08-08 16:05:00,
2013-08-08 10:14:00,69.9,55.4,29.80,NNW,334,0.0,0.0,60,0.00,,,0.00,Wunderground v.1.15,2013-08-08 16:14:00,
2013-08-08 10:19:00,70.0,55.0,29.80,NW,322,0.0,1.0,59,0.00,,,0.00,Wunderground v.1.15,2013-08-08 16:19:00,
2013-08-08 10:24:00,70.2,55.2,29.80,NW,322,0.0,1.0,59,0.00,,,0.00,Wunderground v.1.15,2013-08-08 16:24:00,
2013-08-08 10:30:00,70.6,55.1,29.80,NW,317,1.0,1.0,58,0.00,,,0.00,Wunderground v.1.15,2013-08-08 16:30:00,
2013-08-08 10:35:00,70.6,54.6,29.80,NW,317,1.0,1.0,57,0.00,,,0.00,Wunderground v.1.15,2013-08-08 16:35:00,
2013-08-08 10:40:00,70.8,54.8,29.80,NNW,329,0.0,0.0,57,0.00,,,0.00,Wunderground v.1.15,2013-08-08 16:40:00,
2013-08-08 10:45:00,71.2,54.2,29.80,SSW,202,0.0,0.0,55,0.00,,,0.00,Wunderground v.1.15,2013-08-08 16:45:00,
2013-08-08 10:50:00,71.5,54.5,29.80,SSW,206,0.0,0.0,55,0.00,,,0.00,Wunderground v.1.15,2013-08-08 16:50:00,
2013-08-08 10:54:00,71.7,53.7,29.80,SSW,206,0.0,0.0,53,0.00,,,0.00,Wunderground v.1.15,2013-08-08 16:54:00,
2013-08-08 11:05:00,72.3,53.7,29.81,NNW,336,0.0,0.0,52,0.00,,,0.00,Wunderground v.1.15,2013-08-08 17:05:00,
2013-08-08 11:14:00,73.2,53.4,29.80,NNW,329,0.0,1.0,50,0.00,,,0.00,Wunderground v.1.15,2013-08-08 17:14:00,
2013-08-08 11:19:00,73.5,54.3,29.80,NW,322,1.0,1.0,51,0.00,,,0.00,Wunderground v.1.15,2013-08-08 17:19:00,
2013-08-08 11:24:00,73.7,52.2,29.80,NW,322,0.0,1.0,47,0.00,,,0.00,Wunderground v.1.15,2013-08-08 17:24:00,
2013-08-08 11:35:00,74.5,51.8,29.80,NW,323,0.0,0.0,45,0.00,,,0.00,Wunderground v.1.15,2013-08-08 17:35:00,
2013-08-08 11:40:00,75.3,53.7,29.78,NW,321,0.0,1.0,47,0.00,,,0.00,Wunderground v.1.15,2013-08-08 17:40:00,
2013-08-08 11:45:00,76.0,53.1,29.78,NW,319,0.0,1.0,45,0.00,,,0.00,Wunderground v.1.15,2013-08-08 17:45:00,
2013-08-08 11:50:00,75.8,52.3,29.78,NW,317,0.0,0.0,44,0.00,,,0.00,Wunderground v.1.15,2013-08-08 17:50:00,
2013-08-08 11:55:00,76.0,53.1,29.78,West,261,0.0,2.0,45,0.00,,,0.00,Wunderground v.1.15,2013-08-08 17:55:00,
2013-08-08 12:05:00,74.8,50.8,29.79,West,263,2.0,3.0,43,0.00,,,0.00,Wunderground v.1.15,2013-08-08 18:05:00,
2013-08-08 12:14:00,74.9,51.5,29.79,West,263,0.0,1.0,44,0.00,,,0.00,Wunderground v.1.15,2013-08-08 18:14:00,
2013-08-08 12:19:00,75.3,51.3,29.79,West,267,0.0,0.0,43,0.00,,,0.00,Wunderground v.1.15,2013-08-08 18:19:00,
2013-08-08 12:24:00,75.8,51.7,29.78,WNW,295,0.0,0.0,43,0.00,,,0.00,Wunderground v.1.15,2013-08-08 18:24:00,
2013-08-08 12:29:00,76.5,51.7,29.77,NNW,330,0.0,0.0,42,0.00,,,0.00,Wunderground v.1.15,2013-08-08 18:29:00,
2013-08-08 12:39:00,77.7,52.8,29.76,NNW,333,0.0,0.0,42,0.00,,,0.00,Wunderground v.1.15,2013-08-08 18:39:00,
2013-08-08 12:44:00,77.6,50.7,29.76,NNW,327,0.0,0.0,39,0.00,,,0.00,Wunderground v.1.15,2013-08-08 18:44:00,
2013-08-08 12:49:00,77.8,50.2,29.76,NNW,342,0.0,0.0,38,0.00,,,0.00,Wunderground v.1.15,2013-08-08 18:49:00,
2013-08-08 13:00:00,79.1,51.3,29.75,NW,315,1.0,1.0,38,0.00,,,0.00,Wunderground v.1.15,2013-08-08 19:00:00,
2013-08-08 13:05:00,80.2,50.8,29.75,West,271,1.0,1.0,36,0.00,,,0.00,Wunderground v.1.15,2013-08-08 19:05:00,
2013-08-08 13:15:00,80.8,51.4,29.74,WSW,253,1.0,1.0,36,0.00,,,0.00,Wunderground v.1.15,2013-08-08 19:15:00,
2013-08-08 13:19:00,81.0,51.5,29.73,NNE,26,1.0,1.0,36,0.00,,,0.00,Wunderground v.1.15,2013-08-08 19:19:00,
2013-08-08 13:24:00,81.4,52.6,29.72,West,259,2.0,2.0,37,0.00,,,0.00,Wunderground v.1.15,2013-08-08 19:24:00,
2013-08-08 13:29:00,81.8,53.0,29.73,NW,312,2.0,2.0,37,0.00,,,0.00,Wunderground v.1.15,2013-08-08 19:29:00,
2013-08-08 13:39:00,81.6,52.8,29.72,NW,317,2.0,2.0,37,0.00,,,0.00,Wunderground v.1.15,2013-08-08 19:39:00,
2013-08-08 13:44:00,82.6,52.9,29.71,NNE,25,1.0,2.0,36,0.00,,,0.00,Wunderground v.1.15,2013-08-08 19:44:00,
2013-08-08 13:49:00,83.1,54.1,29.70,NW,319,1.0,2.0,37,0.00,,,0.00,Wunderground v.1.15,2013-08-08 19:49:00,
2013-08-08 13:54:00,83.8,54.0,29.70,NNW,333,1.0,2.0,36,0.00,,,0.00,Wunderground v.1.15,2013-08-08 19:54:00,
2013-08-08 13:59:00,84.2,52.8,29.70,NNE,15,1.0,1.0,34,0.00,,,0.00,Wunderground v.1.15,2013-08-08 19:59:00,
2013-08-08 14:04:00,84.4,53.0,29.70,North,351,2.0,6.0,34,0.00,,,0.00,Wunderground v.1.15,2013-08-08 20:04:00,
2013-08-08 14:10:00,84.3,52.9,29.69,North,9,2.0,2.0,34,0.00,,,0.00,Wunderground v.1.15,2013-08-08 20:10:00,
2013-08-08 14:15:00,84.9,54.2,29.69,SSW,204,2.0,3.0,35,0.00,,,0.00,Wunderground v.1.15,2013-08-08 20:15:00,
2013-08-08 14:20:00,85.4,53.8,29.69,NE,51,2.0,3.0,34,0.00,,,0.00,Wunderground v.1.15,2013-08-08 20:20:00,
2013-08-08 14:25:00,85.7,54.9,29.67,North,350,2.0,3.0,35,0.00,,,0.00,Wunderground v.1.15,2013-08-08 20:25:00,
2013-08-08 14:35:00,86.8,54.2,29.67,NW,323,2.0,3.0,33,0.00,,,0.00,Wunderground v.1.15,2013-08-08 20:35:00,
2013-08-08 14:44:00,87.6,55.8,29.65,NW,316,1.0,2.0,34,0.00,,,0.00,Wunderground v.1.15,2013-08-08 20:44:00,
2013-08-08 14:49:00,87.7,53.3,29.65,WSW,253,2.0,9.0,31,0.00,,,0.00,Wunderground v.1.15,2013-08-08 20:49:00,
2013-08-08 14:54:00,86.6,54.1,29.66,West,274,6.0,9.0,33,0.00,,,0.00,Wunderground v.1.15,2013-08-08 20:54:00,
2013-08-08 14:59:00,86.0,51.0,29.67,WSW,241,9.0,9.0,30,0.00,,,0.00,Wunderground v.1.15,2013-08-08 20:59:00,
2013-08-08 15:14:00,85.2,51.1,29.67,WNW,300,10.0,12.0,31,0.00,,,0.00,Wunderground v.1.15,2013-08-08 21:14:00,
2013-08-08 15:19:00,85.3,51.2,29.67,West,276,10.0,16.0,31,0.00,,,0.00,Wunderground v.1.15,2013-08-08 21:19:00,
2013-08-08 15:24:00,84.8,51.7,29.67,West,281,11.0,16.0,32,0.00,,,0.00,Wunderground v.1.15,2013-08-08 21:24:00,
2013-08-08 15:30:00,84.6,52.3,29.66,WSW,251,13.0,13.0,33,0.00,,,0.00,Wunderground v.1.15,2013-08-08 21:30:00,
2013-08-08 15:35:00,84.3,50.4,29.67,West,259,13.0,13.0,31,0.00,,,0.00,Wunderground v.1.15,2013-08-08 21:35:00,
2013-08-08 15:45:00,85.0,53.5,29.66,West,274,11.0,12.0,34,0.00,,,0.00,Wunderground v.1.15,2013-08-08 21:45:00,
2013-08-08 15:54:00,86.4,50.4,29.65,West,264,11.0,13.0,29,0.00,,,0.00,Wunderground v.1.15,2013-08-08 21:54:00,
2013-08-08 15:59:00,86.4,51.3,29.65,WNW,284,11.0,11.0,30,0.00,,,0.00,Wunderground v.1.15,2013-08-08 21:59:00,
2013-08-08 16:05:00,86.1,50.1,29.65,West,261,11.0,13.0,29,0.00,,,0.00,Wunderground v.1.15,2013-08-08 22:05:00,
2013-08-08 16:14:00,86.4,52.2,29.64,WNW,287,10.0,11.0,31,0.00,,,0.00,Wunderground v.1.15,2013-08-08 22:14:00,
2013-08-08 16:24:00,86.4,51.3,29.65,West,259,12.0,12.0,30,0.00,,,0.00,Wunderground v.1.15,2013-08-08 22:24:00,
2013-08-08 16:29:00,85.9,48.0,29.65,WSW,248,12.0,12.0,27,0.00,,,0.00,Wunderground v.1.15,2013-08-08 22:29:00,
2013-08-08 16:34:00,85.8,48.9,29.64,West,259,12.0,12.0,28,0.00,,,0.00,Wunderground v.1.15,2013-08-08 22:34:00,
2013-08-08 16:39:00,85.7,47.9,29.64,West,261,13.0,13.0,27,0.00,,,0.00,Wunderground v.1.15,2013-08-08 22:39:00,
2013-08-08 16:50:00,85.8,49.9,29.64,West,269,13.0,15.0,29,0.00,,,0.00,Wunderground v.1.15,2013-08-08 22:50:00,
2013-08-08 16:55:00,86.1,48.2,29.64,WNW,292,11.0,15.0,27,0.00,,,0.00,Wunderground v.1.15,2013-08-08 22:55:00,
2013-08-08 17:05:00,86.2,48.3,29.65,West,269,11.0,15.0,27,0.00,,,0.00,Wunderground v.1.15,2013-08-08 23:05:00,
2013-08-08 17:15:00,86.4,47.5,29.65,West,261,11.0,11.0,26,0.00,,,0.00,Wunderground v.1.15,2013-08-08 23:15:00,
2013-08-08 17:20:00,85.7,45.8,29.65,West,261,10.0,10.0,25,0.00,,,0.00,Wunderground v.1.15,2013-08-08 23:20:00,
2013-08-08 17:34:00,86.6,47.6,29.65,WSW,257,9.0,10.0,26,0.00,,,0.00,Wunderground v.1.15,2013-08-08 23:34:00,
2013-08-08 17:44:00,87.6,47.4,29.65,West,260,7.0,10.0,25,0.00,,,0.00,Wunderground v.1.15,2013-08-08 23:44:00,
2013-08-08 17:54:00,85.7,46.9,29.66,WNW,284,9.0,9.0,26,0.00,,,0.00,Wunderground v.1.15,2013-08-08 23:54:00,
2013-08-08 17:59:00,86.2,49.3,29.65,WNW,286,7.0,9.0,28,0.00,,,0.00,Wunderground v.1.15,2013-08-08 23:59:00,
2013-08-08 18:05:00,86.7,47.7,29.65,WNW,284,7.0,11.0,26,0.00,,,0.00,Wunderground v.1.15,2013-08-09 00:05:00,
2013-08-08 18:15:00,86.8,46.8,29.65,West,273,9.0,10.0,25,0.00,,,0.00,Wunderground v.1.15,2013-08-09 00:15:00,
2013-08-08 18:20:00,86.3,47.4,29.66,SW,233,9.0,10.0,26,0.00,,,0.00,Wunderground v.1.15,2013-08-09 00:20:00,
2013-08-08 18:25:00,85.1,46.4,29.66,West,269,9.0,10.0,26,0.00,,,0.00,Wunderground v.1.15,2013-08-09 00:25:00,
2013-08-08 18:34:00,83.7,46.2,29.67,WNW,292,6.0,11.0,27,0.00,,,0.00,Wunderground v.1.15,2013-08-09 00:34:00,
2013-08-08 18:39:00,83.4,46.9,29.68,WSW,245,5.0,5.0,28,0.00,,,0.00,Wunderground v.1.15,2013-08-09 00:39:00,
2013-08-08 18:49:00,84.1,48.4,29.67,NE,46,2.0,2.0,29,0.00,,,0.00,Wunderground v.1.15,2013-08-09 00:49:00,
2013-08-08 18:54:00,84.4,48.7,29.68,ESE,103,3.0,7.0,29,0.00,,,0.00,Wunderground v.1.15,2013-08-09 00:54:00,
2013-08-08 18:59:00,84.3,48.6,29.68,SE,133,4.0,4.0,29,0.00,,,0.00,Wunderground v.1.15,2013-08-09 00:59:00,
2013-08-08 19:05:00,83.5,48.8,29.66,ENE,77,6.0,9.0,30,0.00,,,0.00,Wunderground v.1.15,2013-08-09 01:05:00,
2013-08-08 19:14:00,82.0,48.4,29.68,East,90,9.0,10.0,31,0.00,,,0.00,Wunderground v.1.15,2013-08-09 01:14:00,
2013-08-08 19:20:00,80.4,49.5,29.69,East,83,10.0,14.0,34,0.00,,,0.00,Wunderground v.1.15,2013-08-09 01:20:00,
2013-08-08 19:25:00,78.9,49.7,29.71,East,79,13.0,14.0,36,0.00,,,0.00,Wunderground v.1.15,2013-08-09 01:25:00,
2013-08-08 19:35:00,77.5,48.4,29.71,ESE,103,15.0,22.0,36,0.00,,,0.00,Wunderground v.1.15,2013-08-09 01:35:00,
2013-08-08 19:44:00,76.8,51.3,29.73,NE,42,12.0,16.0,41,0.00,,,0.00,Wunderground v.1.15,2013-08-09 01:44:00,
2013-08-08 19:49:00,75.5,52.1,29.73,ENE,76,11.0,11.0,44,0.00,,,0.00,Wunderground v.1.15,2013-08-09 01:49:00,
2013-08-08 19:59:00,74.7,51.3,29.75,ENE,71,11.0,11.0,44,0.00,,,0.00,Wunderground v.1.15,2013-08-09 01:59:00,
2013-08-08 20:05:00,73.4,52.5,29.73,ENE,67,12.0,12.0,48,0.00,,,0.00,Wunderground v.1.15,2013-08-09 02:05:00,
2013-08-08 20:14:00,70.4,52.4,29.75,East,79,13.0,18.0,53,0.00,,,0.01,Wunderground v.1.15,2013-08-09 02:14:00,
2013-08-08 20:29:00,70.0,51.6,29.77,East,82,8.0,8.0,52,0.00,,,0.01,Wunderground v.1.15,2013-08-09 02:29:00,
2013-08-08 20:34:00,70.2,52.8,29.77,South,181,6.0,8.0,54,0.00,,,0.01,Wunderground v.1.15,2013-08-09 02:34:00,
2013-08-08 20:39:00,69.6,53.2,29.77,ESE,110,5.0,5.0,56,0.00,,,0.01,Wunderground v.1.15,2013-08-09 02:39:00,
2013-08-08 20:45:00,69.0,52.2,29.77,ESE,119,4.0,5.0,55,0.00,,,0.01,Wunderground v.1.15,2013-08-09 02:45:00,
2013-08-08 20:55:00,68.3,53.4,29.77,SE,125,4.0,5.0,59,0.00,,,0.01,Wunderground v.1.15,2013-08-09 02:55:00,
2013-08-08 21:05:00,68.8,51.5,29.77,ESE,102,6.0,6.0,54,0.00,,,0.01,Wunderground v.1.15,2013-08-09 03:05:00,
2013-08-08 21:15:00,69.7,51.3,29.77,ESE,102,6.0,7.0,52,0.00,,,0.01,Wunderground v.1.15,2013-08-09 03:15:00,
2013-08-08 21:20:00,69.6,51.2,29.77,SE,146,6.0,6.0,52,0.00,,,0.01,Wunderground v.1.15,2013-08-09 03:20:00,
2013-08-08 21:24:00,69.9,50.4,29.77,SE,127,6.0,6.0,50,0.00,,,0.01,Wunderground v.1.15,2013-08-09 03:24:00,
2013-08-08 21:34:00,70.2,50.1,29.77,SE,130,5.0,6.0,49,0.00,,,0.01,Wunderground v.1.15,2013-08-09 03:34:00,
2013-08-08 21:39:00,70.5,49.9,29.78,SSE,161,3.0,3.0,48,0.00,,,0.01,Wunderground v.1.15,2013-08-09 03:39:00,
2013-08-08 21:44:00,70.4,50.9,29.78,South,171,3.0,5.0,50,0.00,,,0.01,Wunderground v.1.15,2013-08-09 03:44:00,
2013-08-08 21:49:00,70.1,51.1,29.78,SE,130,3.0,3.0,51,0.00,,,0.01,Wunderground v.1.15,2013-08-09 03:49:00,
2013-08-08 21:54:00,69.9,50.9,29.78,East,99,3.0,3.0,51,0.00,,,0.01,Wunderground v.1.15,2013-08-09 03:54:00,
2013-08-08 21:59:00,70.0,50.5,29.77,ESE,116,4.0,6.0,50,0.00,,,0.01,Wunderground v.1.15,2013-08-09 03:59:00,
2013-08-08 22:05:00,70.2,51.2,29.76,SE,129,5.0,6.0,51,0.00,,,0.01,Wunderground v.1.15,2013-08-09 04:05:00,
2013-08-08 22:10:00,70.2,50.7,29.76,ESE,106,4.0,4.0,50,0.00,,,0.01,Wunderground v.1.15,2013-08-09 04:10:00,
2013-08-08 22:15:00,70.1,50.6,29.76,East,100,3.0,4.0,50,0.00,,,0.01,Wunderground v.1.15,2013-08-09 04:15:00,
2013-08-08 22:20:00,70.0,50.0,29.76,ESE,103,3.0,9.0,49,0.00,,,0.01,Wunderground v.1.15,2013-08-09 04:20:00,
2013-08-08 22:25:00,70.3,50.2,29.76,ESE,105,5.0,9.0,49,0.00,,,0.01,Wunderground v.1.15,2013-08-09 04:25:00,
2013-08-08 22:30:00,70.4,50.3,29.76,ESE,103,6.0,6.0,49,0.00,,,0.01,Wunderground v.1.15,2013-08-09 04:30:00,
2013-08-08 22:35:00,70.2,50.7,29.76,East,84,5.0,6.0,50,0.00,,,0.01,Wunderground v.1.15,2013-08-09 04:35:00,
2013-08-08 22:40:00,69.9,50.4,29.76,East,94,5.0,5.0,50,0.00,,,0.01,Wunderground v.1.15,2013-08-09 04:40:00,
2013-08-08 22:45:00,69.6,50.7,29.76,ENE,69,6.0,6.0,51,0.00,,,0.01,Wunderground v.1.15,2013-08-09 04:45:00,
2013-08-08 22:50:00,69.4,50.5,29.77,East,90,6.0,6.0,51,0.00,,,0.01,Wunderground v.1.15,2013-08-09 04:50:00,
2013-08-08 22:54:00,69.3,50.4,29.77,East,101,5.0,7.0,51,0.00,,,0.01,Wunderground v.1.15,2013-08-09 04:54:00,
2013-08-08 22:59:00,69.2,50.3,29.77,ENE,73,6.0,6.0,51,0.00,,,0.01,Wunderground v.1.15,2013-08-09 04:59:00,
2013-08-08 23:05:00,69.0,50.1,29.76,ENE,61,7.0,7.0,51,0.00,,,0.01,Wunderground v.1.15,2013-08-09 05:05:00,
2013-08-08 23:14:00,67.6,50.4,29.76,ENE,74,6.0,9.0,54,0.00,,,0.01,Wunderground v.1.15,2013-08-09 05:14:00,
2013-08-08 23:19:00,67.3,50.1,29.76,East,98,7.0,7.0,54,0.00,,,0.01,Wunderground v.1.15,2013-08-09 05:19:00,
2013-08-08 23:24:00,67.4,50.2,29.76,East,80,7.0,8.0,54,0.00,,,0.01,Wunderground v.1.15,2013-08-09 05:24:00,
2013-08-08 23:29:00,67.6,49.9,29.76,NE,49,7.0,7.0,53,0.00,,,0.01,Wunderground v.1.15,2013-08-09 05:29:00,
2013-08-08 23:34:00,67.7,49.9,29.77,ENE,65,7.0,9.0,53,0.00,,,0.01,Wunderground v.1.15,2013-08-09 05:34:00,
2013-08-08 23:40:00,67.6,49.9,29.77,ENE,60,8.0,11.0,53,0.00,,,0.01,Wunderground v.1.15,2013-08-09 05:40:00,
2013-08-08 23:45:00,67.8,49.5,29.77,NE,55,8.0,11.0,52,0.00,,,0.01,Wunderground v.1.15,2013-08-09 05:45:00,
2013-08-08 23:50:00,67.8,49.5,29.77,NE,42,9.0,9.0,52,0.00,,,0.01,Wunderground v.1.15,2013-08-09 05:50:00,
2013-08-08 23:55:00,67.7,49.4,29.77,NE,51,7.0,9.0,52,0.00,,,0.01,Wunderground v.1.15,2013-08-09 05:55:00,